< < Back
Terminal Aerodrome Forecast


Current Version              Previous Versions:   1  2  3  4  5  6  7  8  9  

Terminal Aerodrome Forecast

766
FTUS42 KJAX 212300 RRA
TAFJAX
TAF
KJAX 212344Z 2200/2224 04006KT 5SM BR VCSH OVC004
     FM220600 VRB03KT 2SM SHRA BR OVC002
      TEMPO 2208/2212 3/4SM RA BR
     FM221400 10005KT 5SM -RA BR OVC004
     FM221800 08006KT P6SM VCSH OVC008=



Latest METAR

482
SAUS80 KWBC 220900 RRA
MTRJAX
METAR KJAX 220856Z 00000KT 6SM BR OVC006 14/14 A3001 RMK AO2 RAE10
SLP164 P0001 60002 T01390139 58007


USA.gov is the U.S. government's official web portal to all federal, state and local government web resources and services.